Time;durP1;ratioP1;P1;durP2;ratioP2;P2;SDS_P1;SDS_P2;PMS_P1;PMS_P2;Temp;Humidity;BMP_temperature;BMP_pressure;BME280_temperature;BME280_humidity;BME280_pressure;Samples;Min_cycle;Max_cycle;Signal;HPM_P1;HPM_P2
2023/09/21 05:19:09;;;;;;;;;;;;;;;21.13;71.73;95832.84;4239191;27;10240;-64
2023/09/21 05:21:12;;;;;;;;;;;;;;;21.41;70.57;95842.84;4232367;27;5897;-64
2023/09/21 05:23:15;;;;;;;;;;;;;;;21.63;70.00;95830.75;4239718;27;5677;-64
2023/09/21 05:25:18;;;;;;;;;;;;;;;21.81;69.48;95835.38;4245857;27;5764;-64
2023/09/21 05:27:21;;;;;;;;;;;;;;;21.95;69.25;95833.59;4241197;27;5743;-64
2023/09/21 05:29:24;;;;;;;;;;;;;;;22.07;68.92;95834.00;4245425;27;5628;-64
2023/09/21 05:31:27;;;;;;;;;;;;;;;22.17;68.44;95834.97;4239878;27;5637;-64
2023/09/21 05:33:31;;;;;;;;;;;;;;;22.25;67.80;95842.41;4243654;27;5590;-65
2023/09/21 05:35:36;;;;;;;;;;;;;;;22.30;67.37;95828.84;4248488;27;5684;-64
2023/09/21 05:37:42;;;;;;;;;;;;;;;22.37;67.52;95845.44;4233587;27;5784;-64
2023/09/21 05:39:45;;;;;;;;;;;;;;;22.42;67.26;95845.38;4241751;27;6011;-64
2023/09/21 05:41:47;;;;;;;;;;;;;;;22.46;66.72;95845.59;4239389;27;5587;-65
2023/09/21 05:43:50;;;;;;;;;;;;;;;22.50;66.52;95846.63;4233337;27;5657;-65
2023/09/21 05:45:53;;;;;;;;;;;;;;;22.52;66.21;95839.84;4239927;27;5767;-64
2023/09/21 05:47:55;;;;;;;;;;;;;;;22.54;66.15;95845.75;4230377;28;7756;-64
2023/09/21 05:49:58;;;;;;;;;;;;;;;22.57;65.95;95847.06;4247891;27;5610;-64
2023/09/21 05:52:03;;;;;;;;;;;;;;;22.59;65.44;95845.66;4240161;27;6318;-64
2023/09/21 05:54:08;;;;;;;;;;;;;;;22.61;65.33;95842.69;4231382;28;5673;-64
2023/09/21 05:56:11;;;;;;;;;;;;;;;22.64;64.97;95842.09;4231490;28;5805;-63
2023/09/21 05:58:13;;;;;;;;;;;;;;;22.65;64.98;95839.13;4241008;27;5126;-63
2023/09/21 06:00:17;;;;;;;;;;;;;;;22.67;64.71;95841.53;4246682;27;5605;-63
2023/09/21 06:02:20;;;;;;;;;;;;;;;22.68;64.65;95835.03;4233921;27;5158;-64
2023/09/21 06:04:24;;;;;;;;;;;;;;;22.70;64.41;95830.16;4248409;27;5903;-64
2023/09/21 06:06:28;;;;;;;;;;;;;;;22.70;64.31;95835.53;4248453;27;5713;-64
2023/09/21 06:08:32;;;;;;;;;;;;;;;22.72;64.21;95832.56;4248086;27;5079;-65
2023/09/21 06:10:35;;;;;;;;;;;;;;;22.73;64.32;95834.16;4230215;28;6313;-64
2023/09/21 06:12:38;;;;;;;;;;;;;;;22.73;64.05;95834.16;4248240;27;5440;-65
2023/09/21 06:14:42;;;;;;;;;;;;;;;22.74;63.99;95836.53;4248203;27;5622;-65
2023/09/21 06:16:45;;;;;;;;;;;;;;;22.74;64.37;95833.84;4242320;27;5685;-65
2023/09/21 06:18:49;;;;;;;;;;;;;;;22.74;63.91;95833.84;4226917;28;6330;-65
2023/09/21 06:20:53;;;;;;;;;;;;;;;22.76;63.86;95830.84;4219931;28;5857;-65
2023/09/21 06:22:56;;;;;;;;;;;;;;;22.75;63.58;95827.38;4219924;28;5677;-65
2023/09/21 06:25:00;;;;;;;;;;;;;;;22.77;63.96;95827.09;4219629;28;5751;-65
2023/09/21 06:27:03;;;;;;;;;;;;;;;22.78;63.69;95820.63;4219737;28;5616;-65
2023/09/21 06:29:06;;;;;;;;;;;;;;;22.78;64.07;95820.63;4219953;28;5676;-65
2023/09/21 06:31:13;;;;;;;;;;;;;;;22.79;63.53;95816.81;4219676;28;5624;-65
2023/09/21 06:33:15;;;;;;;;;;;;;;;22.78;63.75;95821.41;4227905;28;5859;-64
2023/09/21 06:35:19;;;;;;;;;;;;;;;22.80;63.56;95821.13;4219927;28;6307;-64
2023/09/21 06:37:22;;;;;;;;;;;;;;;22.79;63.47;95812.22;4222091;28;5712;-65
2023/09/21 06:39:25;;;;;;;;;;;;;;;22.81;63.67;95811.94;4224246;28;5675;-65
2023/09/21 06:41:30;;;;;;;;;;;;;;;22.83;63.13;95815.97;4219365;28;5609;-65
2023/09/21 06:43:33;;;;;;;;;;;;;;;22.85;63.22;95815.66;4231969;28;5606;-66
2023/09/21 06:45:36;;;;;;;;;;;;;;;22.88;63.37;95820.47;4236486;28;5688;-65
2023/09/21 06:47:39;;;;;;;;;;;;;;;22.89;62.82;95817.50;4236516;28;5590;-65
2023/09/21 06:49:43;;;;;;;;;;;;;;;22.90;63.09;95823.69;4222404;28;5798;-65
2023/09/21 06:51:46;;;;;;;;;;;;;;;22.91;62.84;95819.88;4219481;28;5640;-65
2023/09/21 06:53:49;;;;;;;;;;;;;;;22.92;63.00;95826.88;4219187;28;5621;-65
2023/09/21 06:55:54;;;;;;;;;;;;;;;22.93;62.71;95833.84;4219535;28;6430;-65
2023/09/21 06:57:58;;;;;;;;;;;;;;;22.92;62.47;95822.28;4219392;28;5735;-65
2023/09/21 07:00:07;;;;;;;;;;;;;;;22.94;62.74;95827.38;4219452;28;5625;-64
2023/09/21 07:02:10;;;;;;;;;;;;;;;22.95;62.37;95820.88;4219393;28;5649;-65
2023/09/21 07:04:13;;;;;;;;;;;;;;;22.96;62.14;95827.88;4220517;28;5625;-65
2023/09/21 07:06:19;;;;;;;;;;;;;;;22.97;62.34;95823.28;4218071;28;5625;-65
2023/09/21 07:08:22;;;;;;;;;;;;;;;22.97;62.39;95826.78;4235186;28;5605;-65
2023/09/21 07:10:25;;;;;;;;;;;;;;;22.97;62.56;95802.53;4236171;28;6307;-65
2023/09/21 07:12:28;;;;;;;;;;;;;;;22.98;62.34;95804.13;4236102;28;5583;-65
2023/09/21 07:14:35;;;;;;;;;;;;;;;22.98;62.29;95804.13;4236094;28;5618;-65
2023/09/21 07:16:38;;;;;;;;;;;;;;;22.97;61.79;95807.91;4236104;28;5606;-65
2023/09/21 07:18:42;;;;;;;;;;;;;;;22.97;61.79;95801.72;4235317;28;5777;-64
2023/09/21 07:20:46;;;;;;;;;;;;;;;22.97;61.69;95802.53;4230055;28;5600;-64
2023/09/21 07:22:49;;;;;;;;;;;;;;;22.98;61.92;95795.22;4219029;28;5672;-65
2023/09/21 07:24:52;;;;;;;;;;;;;;;22.96;61.99;95798.22;4218689;28;5672;-64
2023/09/21 07:26:56;;;;;;;;;;;;;;;22.96;62.04;95803.63;4218899;28;5708;-64
2023/09/21 07:28:59;;;;;;;;;;;;;;;22.98;62.13;95798.72;4218654;28;5695;-65
2023/09/21 07:31:03;;;;;;;;;;;;;;;23.01;61.64;95795.47;4217791;28;6442;-65
2023/09/21 07:33:07;;;;;;;;;;;;;;;23.03;62.06;95795.97;4218779;28;5676;-64
2023/09/21 07:35:10;;;;;;;;;;;;;;;23.05;61.87;95788.38;4218899;28;6250;-64
2023/09/21 07:37:15;;;;;;;;;;;;;;;23.05;61.88;95788.38;4228230;28;5692;-64
2023/09/21 07:39:18;;;;;;;;;;;;;;;23.06;61.81;95787.28;4224595;28;6428;-72
2023/09/21 07:41:22;;;;;;;;;;;;;;;23.07;61.50;95786.16;4218428;28;5616;-64
2023/09/21 07:43:25;;;;;;;;;;;;;;;23.09;61.43;95783.97;4218562;28;5613;-64
2023/09/21 07:45:30;;;;;;;;;;;;;;;23.11;61.27;95784.50;4218450;28;5645;-64
2023/09/21 07:47:35;;;;;;;;;;;;;;;23.12;60.96;95783.41;4218359;28;5613;-64
2023/09/21 07:49:38;;;;;;;;;;;;;;;23.13;60.82;95786.91;4226790;28;5638;-64
2023/09/21 07:51:41;;;;;;;;;;;;;;;23.16;61.31;95789.78;4218498;28;5609;-64
2023/09/21 07:53:44;;;;;;;;;;;;;;;23.20;61.23;95790.78;4232204;28;5598;-63
2023/09/21 07:55:58;;;;;;;;;;;;;;;23.24;61.15;95791.00;4235444;28;5610;-63
2023/09/21 07:58:01;;;;;;;;;;;;;;;23.28;60.90;95785.81;4235440;28;5812;-63
2023/09/21 08:00:09;;;;;;;;;;;;;;;23.31;60.87;95782.50;4235300;28;5598;-63
2023/09/21 08:02:12;;;;;;;;;;;;;;;;;;4235180;28;5795;-64
2023/09/21 08:04:17;;;;;;;;;;;;;;;23.34;60.91;95784.63;4235095;28;5598;-64
2023/09/21 08:06:20;;;;;;;;;;;;;;;23.35;60.79;95780.84;4235282;28;5595;-64
2023/09/21 08:08:24;;;;;;;;;;;;;;;23.37;60.78;95781.31;4231915;28;5847;-64
2023/09/21 08:10:27;;;;;;;;;;;;;;;23.37;60.86;95779.44;4218128;28;5632;-64
2023/09/21 08:12:31;;;;;;;;;;;;;;;23.38;60.24;95782.94;4217763;28;5613;-64
2023/09/21 08:14:34;;;;;;;;;;;;;;;23.39;60.57;95787.22;4218018;28;5612;-64
2023/09/21 08:16:38;;;;;;;;;;;;;;;23.39;60.27;95788.00;4218084;28;5668;-63
2023/09/21 08:18:41;;;;;;;;;;;;;;;23.41;60.45;95785.00;4217747;28;5608;-64
2023/09/21 08:20:46;;;;;;;;;;;;;;;23.42;60.06;95790.09;4218130;28;5605;-64
2023/09/21 08:22:49;;;;;;;;;;;;;;;23.43;60.30;95796.28;4199838;28;5742;-64
2023/09/21 08:24:52;;;;;;;;;;;;;;;23.43;59.84;95804.38;4224417;28;5613;-64
2023/09/21 08:26:55;;;;;;;;;;;;;;;23.42;60.19;95811.69;4234900;28;5692;-64
2023/09/21 08:28:59;;;;;;;;;;;;;;;23.43;60.23;95809.78;4234952;28;5610;-64
2023/09/21 08:31:02;;;;;;;;;;;;;;;23.44;60.21;95811.38;4234853;28;5613;-64
2023/09/21 08:33:07;;;;;;;;;;;;;;;23.44;59.87;95811.38;4234722;28;5606;-65
2023/09/21 08:35:11;;;;;;;;;;;;;;;23.45;59.98;95804.91;4234882;28;5626;-64
2023/09/21 08:37:15;;;;;;;;;;;;;;;23.45;59.63;95797.63;4224553;28;5719;-64
2023/09/21 08:39:19;;;;;;;;;;;;;;;23.48;59.93;95796.22;4217527;28;5617;-64
2023/09/21 08:41:26;;;;;;;;;;;;;;;23.50;59.98;95796.72;4228690;28;5594;-64
2023/09/21 08:43:30;;;;;;;;;;;;;;;23.51;59.71;95798.31;4234678;28;5692;-64
2023/09/21 08:45:33;;;;;;;;;;;;;;;23.51;59.66;95785.63;4234766;28;5621;-63
2023/09/21 08:47:38;;;;;;;;;;;;;;;23.52;59.45;95787.22;4234617;28;5613;-64
2023/09/21 08:49:45;;;;;;;;;;;;;;;23.55;59.60;95791.22;4234682;28;6287;-64
2023/09/21 08:51:49;;;;;;;;;;;;;;;23.54;59.25;95785.00;4234779;28;7632;-64
2023/09/21 08:53:55;;;;;;;;;;;;;;;23.56;59.34;95787.44;4227454;28;5983;-64
2023/09/21 08:55:59;;;;;;;;;;;;;;;23.59;59.17;95791.47;4217766;28;5680;-64
2023/09/21 08:58:04;;;;;;;;;;;;;;;23.60;58.94;95787.66;4234070;28;5598;-65
2023/09/21 09:00:08;;;;;;;;;;;;;;;23.60;58.93;95790.34;4234325;28;5598;-64
2023/09/21 09:02:12;;;;;;;;;;;;;;;23.60;59.00;95793.84;4234486;28;5606;-64
2023/09/21 09:04:16;;;;;;;;;;;;;;;23.60;58.81;95793.84;4234493;28;5609;-64
2023/09/21 09:06:19;;;;;;;;;;;;;;;23.61;59.04;95783.84;4234546;28;5598;-64
2023/09/21 09:08:22;;;;;;;;;;;;;;;23.60;58.86;95785.75;4234106;28;5594;-64
2023/09/21 09:10:26;;;;;;;;;;;;;;;23.60;59.12;95772.28;4234140;28;6267;-64
2023/09/21 09:12:30;;;;;;;;;;;;;;;23.60;59.10;95768.78;4230670;28;5722;-64
2023/09/21 09:14:33;;;;;;;;;;;;;;;23.60;59.13;95766.88;4217495;28;5741;-64
2023/09/21 09:16:36;;;;;;;;;;;;;;;23.60;59.17;95761.47;4217581;28;5719;-64
2023/09/21 09:18:39;;;;;;;;;;;;;;;23.58;59.17;95760.97;4217207;28;5628;-65
2023/09/21 09:20:43;;;;;;;;;;;;;;;23.58;59.01;95752.06;4217488;28;5628;-64
2023/09/21 09:22:50;;;;;;;;;;;;;;;23.57;58.82;95750.47;4217372;28;5613;-64
2023/09/21 09:24:55;;;;;;;;;;;;;;;23.57;59.17;95753.16;4224314;28;5607;-64
2023/09/21 09:26:59;;;;;;;;;;;;;;;23.58;58.86;95743.97;4234235;28;5609;-63
2023/09/21 09:29:07;;;;;;;;;;;;;;;23.58;58.70;95741.28;4225331;28;5723;-65
2023/09/21 09:31:12;;;;;;;;;;;;;;;23.56;58.62;95738.88;4217351;28;5616;-63
2023/09/21 09:33:16;;;;;;;;;;;;;;;23.58;58.55;95730.47;4217413;28;6288;-64
2023/09/21 09:35:20;;;;;;;;;;;;;;;23.60;58.69;95736.41;4217279;28;5632;-64
2023/09/21 09:37:25;;;;;;;;;;;;;;;23.62;58.99;95726.09;4217274;28;5707;-64
2023/09/21 09:39:29;;;;;;;;;;;;;;;23.62;58.41;95737.69;4217007;28;5637;-64
2023/09/21 09:41:33;;;;;;;;;;;;;;;23.63;58.50;95733.09;4217307;28;5793;-64
2023/09/21 09:43:39;;;;;;;;;;;;;;;23.63;58.31;95736.59;4217282;28;6388;-64
2023/09/21 09:45:44;;;;;;;;;;;;;;;23.63;58.64;95727.69;4231033;28;5598;-63
2023/09/21 09:47:55;;;;;;;;;;;;;;;23.62;58.58;95721.50;4234173;28;5959;-63
2023/09/21 09:50:00;;;;;;;;;;;;;;;23.64;58.36;95713.09;4234063;28;5601;-64
2023/09/21 09:52:06;;;;;;;;;;;;;;;23.64;58.30;95723.91;4217148;28;5691;-64
2023/09/21 09:54:10;;;;;;;;;;;;;;;23.64;58.55;95713.09;4217796;28;5613;-64
2023/09/21 09:56:14;;;;;;;;;;;;;;;23.63;58.57;95715.00;4220317;28;5696;-64
2023/09/21 09:58:19;;;;;;;;;;;;;;;23.62;58.25;95699.91;4220328;28;5613;-64
2023/09/21 10:00:23;;;;;;;;;;;;;;;23.64;58.22;95707.72;4222796;28;5609;-64
2023/09/21 10:02:27;;;;;;;;;;;;;;;23.67;58.30;95707.09;4237078;28;5613;-64
2023/09/21 10:04:33;;;;;;;;;;;;;;;23.69;58.28;95700.31;4237088;28;5606;-64
2023/09/21 10:06:41;;;;;;;;;;;;;;;23.71;58.22;95692.72;4237070;28;5595;-64
2023/09/21 10:08:46;;;;;;;;;;;;;;;23.72;57.98;95688.91;4236705;28;5601;-64
2023/09/21 10:10:52;;;;;;;;;;;;;;;23.72;58.07;95683.50;4218971;28;5721;-64
2023/09/21 10:12:56;;;;;;;;;;;;;;;23.71;58.14;95687.31;4237022;28;5606;-63
2023/09/21 10:15:02;;;;;;;;;;;;;;;23.72;58.18;95680.81;4236997;28;5613;-64
2023/09/21 10:17:10;;;;;;;;;;;;;;;23.72;57.74;95672.72;4228239;28;5672;-64
2023/09/21 10:19:17;;;;;;;;;;;;;;;23.75;58.05;95674.81;4219814;28;5672;-64
2023/09/21 10:21:24;;;;;;;;;;;;;;;23.77;57.82;95667.19;4219835;28;5725;-63
2023/09/21 10:23:28;;;;;;;;;;;;;;;23.78;57.90;95670.69;4219956;28;5783;-63
2023/09/21 10:25:38;;;;;;;;;;;;;;;23.80;57.88;95674.72;4219725;28;5669;-63
2023/09/21 10:27:46;;;;;;;;;;;;;;;23.83;57.95;95669.81;4219865;28;5681;-64
2023/09/21 10:29:53;;;;;;;;;;;;;;;23.86;57.60;95663.78;4219854;28;5701;-64
2023/09/21 10:32:01;;;;;;;;;;;;;;;23.87;57.23;95666.19;4219639;28;7205;-64
2023/09/21 10:34:12;;;;;;;;;;;;;;;23.86;57.04;95666.47;4219719;28;5621;-64
2023/09/21 10:36:19;;;;;;;;;;;;;;;23.84;56.59;95658.69;4219867;28;6314;-64
2023/09/21 10:38:23;;;;;;;;;;;;;;;23.84;56.80;95657.91;4219602;28;5684;-64
2023/09/21 10:40:27;;;;;;;;;;;;;;;23.80;56.46;95650.41;4219522;28;5083;-64
2023/09/21 10:42:33;;;;;;;;;;;;;;;23.78;56.11;95652.63;4219760;28;5609;-65
2023/09/21 10:45:09;;;;;;;;;;;;;;;23.75;56.04;95653.22;4219764;28;5612;-65
2023/09/21 10:47:12;;;;;;;;;;;;;;;23.76;55.97;95652.13;4218341;28;5699;-65
2023/09/21 10:49:18;;;;;;;;;;;;;;;23.76;55.65;95646.72;4229367;28;6282;-65
2023/09/21 10:51:23;;;;;;;;;;;;;;;23.76;55.73;95644.00;4236414;28;5773;-65
2023/09/21 10:53:26;;;;;;;;;;;;;;;23.76;55.72;95640.53;4236330;28;5609;-65
2023/09/21 10:55:29;;;;;;;;;;;;;;;23.78;55.66;95638.31;4236039;28;5730;-65
2023/09/21 10:57:32;;;;;;;;;;;;;;;23.78;55.55;95639.13;4236335;28;5594;-65
2023/09/21 10:59:35;;;;;;;;;;;;;;;23.79;55.51;95631.84;4236212;28;5602;-65
2023/09/21 11:01:39;;;;;;;;;;;;;;;23.79;55.63;95619.16;4236241;28;6407;-65
2023/09/21 11:03:42;;;;;;;;;;;;;;;23.80;55.55;95619.94;4236215;28;5602;-65
2023/09/21 11:05:47;;;;;;;;;;;;;;;23.78;55.26;95614.84;4221691;28;5613;-65
2023/09/21 11:07:52;;;;;;;;;;;;;;;23.79;55.49;95619.16;4219013;28;5748;-65
2023/09/21 11:09:54;;;;;;;;;;;;;;;23.79;55.22;95619.16;4218897;28;5617;-65
2023/09/21 11:11:57;;;;;;;;;;;;;;;23.82;55.20;95609.63;4219319;28;5656;-65
2023/09/21 11:14:03;;;;;;;;;;;;;;;23.81;54.88;95616.94;4219080;28;5616;-65
2023/09/21 11:16:06;;;;;;;;;;;;;;;23.84;54.89;95610.13;4219201;28;5727;-65
2023/09/21 11:18:10;;;;;;;;;;;;;;;23.87;54.99;95614.09;4218715;28;5652;-65
2023/09/21 11:20:17;;;;;;;;;;;;;;;23.88;54.85;95610.28;4220388;28;5631;-65
2023/09/21 11:22:23;;;;;;;;;;;;;;;23.89;54.40;95611.88;4235813;28;5707;-65
2023/09/21 11:24:25;;;;;;;;;;;;;;;23.90;54.37;95622.41;4235836;28;5695;-65
2023/09/21 11:26:32;;;;;;;;;;;;;;;23.90;54.43;95618.88;4236014;28;5144;-65
2023/09/21 11:28:36;;;;;;;;;;;;;;;23.92;54.68;95616.69;4235849;28;5598;-65
2023/09/21 11:30:38;;;;;;;;;;;;;;;23.92;54.14;95616.69;4235905;28;5590;-65
2023/09/21 11:32:44;;;;;;;;;;;;;;;23.92;54.31;95612.09;4235714;28;5661;-65
2023/09/21 11:34:47;;;;;;;;;;;;;;;23.93;54.68;95613.69;4235751;28;5059;-65
2023/09/21 11:36:51;;;;;;;;;;;;;;;23.95;54.76;95610.69;4229051;28;5752;-65
2023/09/21 11:38:56;;;;;;;;;;;;;;;23.95;54.61;95606.06;4218448;28;5633;-65
2023/09/21 11:40:59;;;;;;;;;;;;;;;23.94;54.70;95599.09;4200720;28;5730;-65
2023/09/21 11:43:02;;;;;;;;;;;;;;;23.93;54.34;95602.09;4218725;28;5669;-65
2023/09/21 11:45:07;;;;;;;;;;;;;;;23.94;54.47;95601.00;4218520;28;5680;-65
2023/09/21 11:47:11;;;;;;;;;;;;;;;23.93;54.34;95597.50;4218638;28;5608;-65
2023/09/21 11:49:14;;;;;;;;;;;;;;;23.94;54.16;95598.28;4218405;28;6306;-65
2023/09/21 11:51:19;;;;;;;;;;;;;;;23.94;54.71;95595.59;4218554;28;5628;-65
2023/09/21 11:53:22;;;;;;;;;;;;;;;23.97;54.58;95589.56;4229560;28;5593;-65
2023/09/21 11:55:28;;;;;;;;;;;;;;;23.97;54.42;95593.06;4232203;28;5628;-65
2023/09/21 11:57:30;;;;;;;;;;;;;;;23.98;54.32;95583.84;4218491;28;5617;-65
2023/09/21 11:59:36;;;;;;;;;;;;;;;23.98;54.49;95585.75;4218424;28;5625;-65
2023/09/21 12:01:39;;;;;;;;;;;;;;;23.96;54.53;95593.38;4218299;28;5641;-65
2023/09/21 12:03:42;;;;;;;;;;;;;;;23.96;54.43;95577.19;4218529;28;5647;-65
2023/09/21 12:05:45;;;;;;;;;;;;;;;23.96;54.27;95569.88;4218329;28;5617;-65
2023/09/21 12:07:48;;;;;;;;;;;;;;;23.96;53.90;95569.09;4218121;28;5627;-65
2023/09/21 12:09:51;;;;;;;;;;;;;;;23.96;53.78;95564.47;4232920;28;5598;-65
2023/09/21 12:11:56;;;;;;;;;;;;;;;23.97;53.99;95559.88;4235267;28;5605;-65
2023/09/21 12:13:58;;;;;;;;;;;;;;;23.98;54.02;95556.06;4235026;28;5135;-64
2023/09/21 12:16:02;;;;;;;;;;;;;;;23.98;53.75;95558.78;4235148;28;5623;-65
2023/09/21 12:18:07;;;;;;;;;;;;;;;23.96;53.89;95564.47;4234089;28;5664;-65
2023/09/21 12:20:17;;;;;;;;;;;;;;;23.97;54.03;95554.47;4235157;28;5504;-65
2023/09/21 12:22:20;;;;;;;;;;;;;;;23.97;53.65;95543.69;4234984;28;5609;-65
2023/09/21 12:24:22;;;;;;;;;;;;;;;23.98;53.99;95542.56;4231946;28;5825;-65
2023/09/21 12:26:25;;;;;;;;;;;;;;;23.99;53.59;95544.16;4218097;28;5616;-65
2023/09/21 12:28:30;;;;;;;;;;;;;;;24.00;53.73;95553.84;4217895;28;5799;-65
2023/09/21 12:30:33;;;;;;;;;;;;;;;24.02;53.76;95551.66;4230436;28;5714;-65
2023/09/21 12:32:38;;;;;;;;;;;;;;;24.03;53.73;95555.97;4234925;28;5642;-65
2023/09/21 12:34:42;;;;;;;;;;;;;;;24.04;53.37;95550.25;4234929;28;5602;-63
2023/09/21 12:36:48;;;;;;;;;;;;;;;24.07;53.64;95543.44;4220482;28;5616;-64
2023/09/21 12:38:52;;;;;;;;;;;;;;;24.08;53.29;95550.41;4217399;28;5613;-64
2023/09/21 12:40:56;;;;;;;;;;;;;;;24.08;53.35;95540.41;4225150;28;6286;-64
2023/09/21 12:42:59;;;;;;;;;;;;;;;24.10;53.25;95537.41;4234601;28;5645;-64
2023/09/21 12:45:04;;;;;;;;;;;;;;;24.11;53.27;95547.88;4234844;28;5059;-64
2023/09/21 12:47:09;;;;;;;;;;;;;;;24.13;53.25;95536.81;4234703;28;5706;-64
2023/09/21 12:49:13;;;;;;;;;;;;;;;24.15;53.09;95537.28;4234519;28;7655;-63
2023/09/21 12:51:16;;;;;;;;;;;;;;;24.16;53.29;95529.97;4234602;28;5610;-64
2023/09/21 12:53:18;;;;;;;;;;;;;;;24.16;53.32;95533.47;4234451;28;5693;-64
2023/09/21 12:55:21;;;;;;;;;;;;;;;24.17;52.71;95524.28;4234267;28;5609;-64
2023/09/21 12:57:24;;;;;;;;;;;;;;;24.20;52.90;95529.03;4223024;28;5617;-64
2023/09/21 12:59:28;;;;;;;;;;;;;;;24.20;52.83;95522.84;4217744;28;5690;-64
2023/09/21 13:01:33;;;;;;;;;;;;;;;24.21;52.65;95517.13;4217517;28;5609;-64
2023/09/21 13:03:36;;;;;;;;;;;;;;;24.23;52.43;95514.91;4217453;28;5605;-64
2023/09/21 13:05:41;;;;;;;;;;;;;;;24.24;52.48;95511.13;4217539;28;5704;-64
2023/09/21 13:07:46;;;;;;;;;;;;;;;24.25;52.30;95504.63;4217466;28;5069;-64
2023/09/21 13:09:49;;;;;;;;;;;;;;;24.23;52.02;95514.91;4217240;28;5601;-64
2023/09/21 13:11:55;;;;;;;;;;;;;;;24.24;52.57;95518.44;4217659;28;5735;-64
2023/09/21 13:13:58;;;;;;;;;;;;;;;24.23;51.98;95511.41;4233513;28;5622;-64
2023/09/21 13:16:04;;;;;;;;;;;;;;;24.24;52.15;95505.72;4234250;28;5605;-65
2023/09/21 13:18:10;;;;;;;;;;;;;;;24.23;52.21;95492.50;4234236;28;5689;-65
2023/09/21 13:20:17;;;;;;;;;;;;;;;24.24;52.05;95488.72;4216320;28;5612;-64
2023/09/21 13:22:21;;;;;;;;;;;;;;;24.25;51.74;95491.13;4234302;28;5781;-64
2023/09/21 13:24:24;;;;;;;;;;;;;;;24.26;51.77;95491.91;4234073;28;5598;-64
2023/09/21 13:26:27;;;;;;;;;;;;;;;24.26;52.03;95481.13;4222628;28;5714;-65
2023/09/21 13:28:30;;;;;;;;;;;;;;;24.25;51.87;95491.13;4220947;28;5606;-64
2023/09/21 13:30:33;;;;;;;;;;;;;;;24.27;51.92;95480.78;4237475;28;5594;-64
2023/09/21 13:32:36;;;;;;;;;;;;;;;24.28;51.60;95468.88;4237599;28;5649;-64
2023/09/21 13:34:41;;;;;;;;;;;;;;;24.30;51.98;95461.28;4237713;28;5622;-63
2023/09/21 13:36:45;;;;;;;;;;;;;;;24.31;52.10;95462.88;4237537;28;5610;-64
2023/09/21 13:38:51;;;;;;;;;;;;;;;24.32;52.02;95459.06;4237263;28;5597;-64
2023/09/21 13:40:55;;;;;;;;;;;;;;;24.31;52.05;95462.88;4237651;28;5606;-65
2023/09/21 13:42:58;;;;;;;;;;;;;;;24.33;52.48;95457.16;4237516;28;5718;-64
2023/09/21 13:45:01;;;;;;;;;;;;;;;24.33;52.26;95449.84;4229172;28;5728;-64
2023/09/21 13:47:04;;;;;;;;;;;;;;;24.33;52.65;95447.16;4202512;28;5647;-64
2023/09/21 13:49:07;;;;;;;;;;;;;;;24.29;52.68;95440.75;4220432;28;5620;-64
2023/09/21 13:51:11;;;;;;;;;;;;;;;24.28;52.39;95435.69;4220497;28;5609;-64
2023/09/21 13:53:16;;;;;;;;;;;;;;;24.30;52.81;95436.97;4220458;28;5692;-64
2023/09/21 13:55:20;;;;;;;;;;;;;;;24.32;52.87;95425.88;4220245;28;5605;-64
2023/09/21 13:57:29;;;;;;;;;;;;;;;24.34;52.80;95435.25;4223552;28;5606;-65
2023/09/21 13:59:32;;;;;;;;;;;;;;;24.36;52.93;95438.44;4237276;28;5806;-65
2023/09/21 14:01:35;;;;;;;;;;;;;;;24.37;52.57;95429.22;4224283;28;5598;-65
2023/09/21 14:03:38;;;;;;;;;;;;;;;24.35;52.72;95434.16;4220288;28;5604;-65
2023/09/21 14:05:42;;;;;;;;;;;;;;;24.35;52.86;95439.56;4220423;28;5604;-65
2023/09/21 14:07:47;;;;;;;;;;;;;;;24.35;52.45;95431.47;4219996;28;5616;-65
2023/09/21 14:09:50;;;;;;;;;;;;;;;24.32;52.26;95420.47;4220128;28;6317;-65
2023/09/21 14:11:57;;;;;;;;;;;;;;;24.28;52.15;95417.56;4220133;28;5736;-65
2023/09/21 14:14:00;;;;;;;;;;;;;;;24.26;52.30;95422.50;4219873;28;5613;-65
2023/09/21 14:16:06;;;;;;;;;;;;;;;24.26;52.45;95419.00;4232097;28;5668;-65
2023/09/21 14:18:09;;;;;;;;;;;;;;;24.24;52.57;95408.53;4233352;28;5582;-65
2023/09/21 14:20:13;;;;;;;;;;;;;;;24.25;52.46;95407.41;4236165;28;5617;-65
2023/09/21 14:22:16;;;;;;;;;;;;;;;24.25;52.17;95410.09;4229233;28;5696;-65
2023/09/21 14:24:22;;;;;;;;;;;;;;;24.26;52.19;95411.69;4226389;28;5602;-64
2023/09/21 14:26:25;;;;;;;;;;;;;;;24.27;52.17;95416.00;4233393;28;5597;-65
2023/09/21 14:28:29;;;;;;;;;;;;;;;24.28;52.18;95408.69;4232372;28;5585;-65
2023/09/21 14:30:33;;;;;;;;;;;;;;;24.28;52.42;95409.47;4228935;28;6385;-65
2023/09/21 14:32:36;;;;;;;;;;;;;;;24.28;52.10;95406.78;4226909;28;5944;-65
2023/09/21 14:34:40;;;;;;;;;;;;;;;24.29;52.14;95408.38;4227182;28;5628;-65
2023/09/21 14:36:43;;;;;;;;;;;;;;;24.30;52.52;95417.25;4232472;28;5784;-65
2023/09/21 14:38:46;;;;;;;;;;;;;;;24.28;52.62;95425.69;4230828;28;5792;-64
2023/09/21 14:40:51;;;;;;;;;;;;;;;24.28;52.74;95428.38;4232290;28;5594;-65
2023/09/21 14:42:55;;;;;;;;;;;;;;;24.24;52.73;95430.13;4232055;28;5761;-65
2023/09/21 14:44:57;;;;;;;;;;;;;;;24.23;53.04;95428.50;4230258;28;5725;-65
2023/09/21 14:47:05;;;;;;;;;;;;;;;24.23;52.89;95433.91;4231680;28;5609;-65
2023/09/21 14:49:08;;;;;;;;;;;;;;;24.19;53.19;95430.25;4225429;28;5888;-65
2023/09/21 14:51:11;;;;;;;;;;;;;;;24.18;52.91;95434.06;4221959;28;5605;-64
2023/09/21 14:53:14;;;;;;;;;;;;;;;24.19;52.86;95434.84;4225934;28;5685;-66
2023/09/21 14:55:19;;;;;;;;;;;;;;;24.19;53.20;95432.94;4227845;28;5828;-65
2023/09/21 14:57:24;;;;;;;;;;;;;;;24.20;53.37;95439.94;4223509;28;5651;-65
2023/09/21 14:59:27;;;;;;;;;;;;;;;24.18;53.42;95441.38;4230757;28;5708;-65
2023/09/21 15:01:31;;;;;;;;;;;;;;;24.17;53.65;95437.06;4224479;28;5590;-64
2023/09/21 15:03:35;;;;;;;;;;;;;;;24.15;54.04;95436.59;4228151;28;5601;-64
2023/09/21 15:05:39;;;;;;;;;;;;;;;24.15;54.12;95431.19;4218904;28;5828;-64
2023/09/21 15:07:42;;;;;;;;;;;;;;;24.15;54.04;95425.78;4224858;28;5699;-64
2023/09/21 15:09:45;;;;;;;;;;;;;;;24.12;54.07;95419.09;4225321;28;5726;-64
2023/09/21 15:11:48;;;;;;;;;;;;;;;24.13;54.53;95438.81;4231374;28;5841;-64
2023/09/21 15:13:53;;;;;;;;;;;;;;;24.10;54.40;95440.22;4228595;28;5813;-64
2023/09/21 15:15:56;;;;;;;;;;;;;;;24.09;54.70;95434.03;4227946;28;5629;-64
2023/09/21 15:17:59;;;;;;;;;;;;;;;24.07;54.77;95430.03;4233612;28;5732;-64
2023/09/21 15:20:02;;;;;;;;;;;;;;;24.07;54.94;95424.66;4234790;28;5752;-64
2023/09/21 15:22:05;;;;;;;;;;;;;;;24.07;54.97;95413.84;4234730;28;5676;-64
2023/09/21 15:24:09;;;;;;;;;;;;;;;24.07;55.19;95403.84;4234325;28;5602;-64
2023/09/21 15:26:13;;;;;;;;;;;;;;;24.07;55.48;95403.06;4225284;28;5605;-64
2023/09/21 15:28:22;;;;;;;;;;;;;;;24.04;55.84;95403.69;4228577;28;5789;-64
2023/09/21 15:30:28;;;;;;;;;;;;;;;24.04;55.61;95414.47;4234196;28;5705;-64
2023/09/21 15:32:31;;;;;;;;;;;;;;;24.04;55.53;95414.47;4234536;28;5680;-64
2023/09/21 15:34:35;;;;;;;;;;;;;;;24.06;55.43;95412.25;4231342;28;5677;-64
2023/09/21 15:36:40;;;;;;;;;;;;;;;24.07;55.20;95403.06;4232174;28;6663;-64
2023/09/21 15:38:44;;;;;;;;;;;;;;;24.09;55.21;95400.81;4227167;28;5715;-62
2023/09/21 15:40:46;;;;;;;;;;;;;;;24.09;55.21;95395.44;4228570;28;5606;-63
2023/09/21 15:42:51;;;;;;;;;;;;;;;24.10;55.55;95388.91;4221230;27;5600;-63
2023/09/21 15:44:54;;;;;;;;;;;;;;;24.10;55.26;95397.81;4229909;27;5708;-64
2023/09/21 15:46:59;;;;;;;;;;;;;;;24.10;55.50;95399.72;4226366;28;5664;-63
2023/09/21 15:49:02;;;;;;;;;;;;;;;24.12;55.30;95400.19;4223810;27;5636;-63
2023/09/21 15:51:07;;;;;;;;;;;;;;;24.11;55.53;95404.00;4227862;27;5779;-63
2023/09/21 15:53:10;;;;;;;;;;;;;;;24.12;55.29;95408.28;4223623;28;5764;-64
2023/09/21 15:55:13;;;;;;;;;;;;;;;24.12;55.03;95411.00;4226708;28;5629;-64
2023/09/21 15:57:17;;;;;;;;;;;;;;;24.13;55.51;95412.63;4224411;28;5672;-64
2023/09/21 15:59:18;;;;;;;;;;;;;;;24.13;55.36;95409.91;4223056;27;6437;-64
2023/09/21 16:01:21;;;;;;;;;;;;;;;24.14;55.63;95414.19;4226376;28;5613;-63
2023/09/21 16:03:27;;;;;;;;;;;;;;;24.13;55.49;95409.91;4228785;27;5602;-81
2023/09/21 16:05:30;;;;;;;;;;;;;;;24.13;55.44;95415.31;4232364;28;5780;-79
2023/09/21 16:07:34;;;;;;;;;;;;;;;24.13;55.50;95423.41;4235932;28;5590;-82
2023/09/21 16:09:38;;;;;;;;;;;;;;;24.13;54.96;95412.63;4239602;27;5614;-81
2023/09/21 16:11:42;;;;;;;;;;;;;;;24.11;54.86;95418.28;4226953;28;5783;-81
2023/09/21 16:13:45;;;;;;;;;;;;;;;24.11;54.94;95426.41;4234045;28;5689;-81